Time;durP1;ratioP1;P1;durP2;ratioP2;P2;SDS_P1;SDS_P2;PMS_P1;PMS_P2;Temp;Humidity;BMP_temperature;BMP_pressure;BME280_temperature;BME280_humidity;BME280_pressure;Samples;Min_cycle;Max_cycle;Signal;HPM_P1;HPM_P2
2021/12/14 00:01:36;;;;;;;1.00;1.00;;;;;;;;;;6272228;22;20041;-61
2021/12/14 00:04:05;;;;;;;0.00;0.00;;;;;;;;;;6271546;22;20401;-60
2021/12/14 00:06:30;;;;;;;0.00;0.00;;;;;;;;;;6271918;22;20061;-58
2021/12/14 00:08:57;;;;;;;0.00;0.00;;;;;;;;;;6272699;22;20368;-58
2021/12/14 00:11:33;;;;;;;0.08;0.08;;;;;;;;;;6271750;22;20448;-59
2021/12/14 00:14:24;;;;;;;0.00;0.00;;;;;;;;;;6271728;22;20000;-59
2021/12/14 00:16:47;;;;;;;0.00;0.00;;;;;;;;;;6272157;22;19999;-59
2021/12/14 00:19:12;;;;;;;4.18;3.40;;;;;;;;;;6271418;22;20010;-58
2021/12/14 00:21:38;;;;;;;0.00;0.00;;;;;;;;;;6272662;22;20377;-59
2021/12/14 00:24:07;;;;;;;0.00;0.00;;;;;;;;;;6271811;22;20019;-59
2021/12/14 00:26:41;;;;;;;19.63;17.98;;;;;;;;;;6272041;22;20000;-60
2021/12/14 00:29:08;;;;;;;0.00;0.00;;;;;;;;;;6271967;22;20360;-60
2021/12/14 00:31:36;;;;;;;0.00;0.00;;;;;;;;;;6272384;22;20172;-60
2021/12/14 00:34:04;;;;;;;0.43;0.43;;;;;;;;;;6271377;22;19995;-60
2021/12/14 00:36:29;;;;;;;0.00;0.00;;;;;;;;;;6272249;22;20007;-60
2021/12/14 00:38:57;;;;;;;0.10;0.10;;;;;;;;;;6271812;22;20019;-60
2021/12/14 00:41:25;;;;;;;0.00;0.00;;;;;;;;;;6270960;22;20406;-60
2021/12/14 00:43:50;;;;;;;0.00;0.00;;;;;;;;;;6272448;22;20503;-60
2021/12/14 00:46:17;;;;;;;0.00;0.00;;;;;;;;;;6271925;22;19992;-60
2021/12/14 00:48:43;;;;;;;0.00;0.00;;;;;;;;;;6272130;22;20030;-60
2021/12/14 00:51:08;;;;;;;0.00;0.00;;;;;;;;;;6273659;22;19996;-60
2021/12/14 00:53:34;;;;;;;0.00;0.00;;;;;;;;;;6274334;22;20000;-59
2021/12/14 00:56:00;;;;;;;0.00;0.00;;;;;;;;;;6274300;22;20023;-60
2021/12/14 00:58:25;;;;;;;0.00;0.00;;;;;;;;;;6274228;22;20002;-60
2021/12/14 01:00:57;;;;;;;0.00;0.00;;;;;;;;;;6272961;22;19996;-60
2021/12/14 01:03:22;;;;;;;2.65;2.60;;;;;;;;;;6273803;22;20413;-60
2021/12/14 01:05:49;;;;;;;0.00;0.00;;;;;;;;;;6274439;22;20007;-59
2021/12/14 01:08:22;;;;;;;2.47;2.47;;;;;;;;;;6273073;22;20365;-60
2021/12/14 01:10:53;;;;;;;0.00;0.00;;;;;;;;;;6274264;22;20019;-60
2021/12/14 01:13:22;;;;;;;0.00;0.00;;;;;;;;;;6273713;22;20007;-59
2021/12/14 01:15:58;;;;;;;0.15;0.15;;;;;;;;;;6247557;22;20061;-60
2021/12/14 01:18:32;;;;;;;0.00;0.00;;;;;;;;;;6273338;22;20010;-59
2021/12/14 01:21:02;;;;;;;0.00;0.00;;;;;;;;;;6274556;22;20378;-59
2021/12/14 01:23:31;;;;;;;0.00;0.00;;;;;;;;;;6273905;22;20428;-59
2021/12/14 01:26:00;;;;;;;0.00;0.00;;;;;;;;;;6274016;22;20015;-59
2021/12/14 01:28:27;;;;;;;0.00;0.00;;;;;;;;;;6274297;22;19996;-59
2021/12/14 01:31:14;;;;;;;0.00;0.00;;;;;;;;;;6274498;22;20011;-58
2021/12/14 01:33:41;;;;;;;0.00;0.00;;;;;;;;;;6274168;22;20006;-59
2021/12/14 01:36:21;;;;;;;0.00;0.00;;;;;;;;;;6273637;22;19996;-59
2021/12/14 01:38:58;;;;;;;3.20;0.20;;;;;;;;;;6272671;22;20007;-59
2021/12/14 01:41:24;;;;;;;0.00;0.00;;;;;;;;;;6273526;22;20007;-59
2021/12/14 01:43:51;;;;;;;0.00;0.00;;;;;;;;;;6274177;22;20652;-59
2021/12/14 01:46:32;;;;;;;0.00;0.00;;;;;;;;;;6273320;22;19996;-60
2021/12/14 01:49:04;;;;;;;0.00;0.00;;;;;;;;;;6273872;22;20003;-60
2021/12/14 01:51:30;;;;;;;0.00;0.00;;;;;;;;;;6273039;22;20000;-59
2021/12/14 01:53:55;;;;;;;0.10;0.10;;;;;;;;;;6274088;22;20003;-60
2021/12/14 01:56:22;;;;;;;0.00;0.00;;;;;;;;;;6273263;22;20003;-60
2021/12/14 01:58:53;;;;;;;0.20;0.20;;;;;;;;;;6273741;22;20011;-59
2021/12/14 02:01:20;;;;;;;0.00;0.00;;;;;;;;;;6272732;22;20002;-59
2021/12/14 02:03:51;;;;;;;0.00;0.00;;;;;;;;;;6274180;22;20000;-59
2021/12/14 02:06:18;;;;;;;0.00;0.00;;;;;;;;;;6272610;22;20078;-59
2021/12/14 02:08:44;;;;;;;0.00;0.00;;;;;;;;;;6272967;22;20003;-59
2021/12/14 02:11:10;;;;;;;0.00;0.00;;;;;;;;;;6273091;22;20003;-59
2021/12/14 02:13:37;;;;;;;0.00;0.00;;;;;;;;;;6273445;22;20006;-59
2021/12/14 02:16:04;;;;;;;0.75;0.75;;;;;;;;;;6273785;22;20004;-59
2021/12/14 02:18:29;;;;;;;0.00;0.00;;;;;;;;;;6273528;22;20560;-59
2021/12/14 02:20:56;;;;;;;0.00;0.00;;;;;;;;;;6273764;22;19999;-60
2021/12/14 02:23:22;;;;;;;0.00;0.00;;;;;;;;;;6272767;22;20432;-59
2021/12/14 02:25:48;;;;;;;0.00;0.00;;;;;;;;;;6273684;22;19996;-59
2021/12/14 02:28:18;;;;;;;0.00;0.00;;;;;;;;;;6272946;22;19992;-60
2021/12/14 02:30:52;;;;;;;0.70;0.70;;;;;;;;;;6273372;22;20022;-60
2021/12/14 02:33:32;;;;;;;0.32;0.32;;;;;;;;;;6273144;22;20024;-60
2021/12/14 02:35:57;;;;;;;0.00;0.00;;;;;;;;;;6245878;22;19999;-60
2021/12/14 02:38:23;;;;;;;0.00;0.00;;;;;;;;;;6272406;22;20008;-60
2021/12/14 02:41:05;;;;;;;0.00;0.00;;;;;;;;;;6272802;22;20077;-59
2021/12/14 02:43:33;;;;;;;0.00;0.00;;;;;;;;;;6269561;22;20115;-60
2021/12/14 02:46:04;;;;;;;0.00;0.00;;;;;;;;;;6272521;22;19996;-61
2021/12/14 02:48:30;;;;;;;0.00;0.00;;;;;;;;;;6272740;22;20003;-60
2021/12/14 02:50:55;;;;;;;0.00;0.00;;;;;;;;;;6273137;22;20083;-60
2021/12/14 02:53:20;;;;;;;0.00;0.00;;;;;;;;;;6244725;22;20090;-60
2021/12/14 02:55:49;;;;;;;0.10;0.10;;;;;;;;;;6273216;22;19995;-59
2021/12/14 02:58:20;;;;;;;0.00;0.00;;;;;;;;;;6272217;22;20004;-59
2021/12/14 03:00:52;;;;;;;4.82;4.57;;;;;;;;;;6273070;22;20326;-59
2021/12/14 03:03:18;;;;;;;4.55;3.15;;;;;;;;;;6271396;22;19991;-59
2021/12/14 03:05:45;;;;;;;0.00;0.00;;;;;;;;;;6272842;22;20414;-59
2021/12/14 03:08:14;;;;;;;0.00;0.00;;;;;;;;;;6272509;22;20448;-58
2021/12/14 03:10:55;;;;;;;0.00;0.00;;;;;;;;;;6273447;22;20078;-58
2021/12/14 03:13:22;;;;;;;3.20;3.03;;;;;;;;;;6272044;22;20003;-59
2021/12/14 03:15:52;;;;;;;0.00;0.00;;;;;;;;;;6273210;22;20069;-58
2021/12/14 03:18:21;;;;;;;0.00;0.00;;;;;;;;;;6272403;22;20415;-59
2021/12/14 03:20:48;;;;;;;0.00;0.00;;;;;;;;;;6272842;22;20032;-58
2021/12/14 03:23:16;;;;;;;0.00;0.00;;;;;;;;;;6272624;22;20372;-59
2021/12/14 03:25:45;;;;;;;0.00;0.00;;;;;;;;;;6273207;22;20410;-59
2021/12/14 03:28:12;;;;;;;0.10;0.10;;;;;;;;;;6271675;22;20006;-60
2021/12/14 03:30:43;;;;;;;0.00;0.00;;;;;;;;;;6245387;22;20003;-59
2021/12/14 03:33:18;;;;;;;0.00;0.00;;;;;;;;;;6272067;22;20004;-58
2021/12/14 03:35:50;;;;;;;1.48;1.42;;;;;;;;;;6272619;22;20023;-58
2021/12/14 03:38:20;;;;;;;0.00;0.00;;;;;;;;;;6271998;22;19996;-59
2021/12/14 03:40:54;;;;;;;0.00;0.00;;;;;;;;;;6271639;22;20058;-59
2021/12/14 03:43:25;;;;;;;0.00;0.00;;;;;;;;;;6272187;22;20004;-60
2021/12/14 03:45:51;;;;;;;0.00;0.00;;;;;;;;;;6272746;22;20183;-59
2021/12/14 03:48:16;;;;;;;0.00;0.00;;;;;;;;;;6271620;22;20064;-59
2021/12/14 03:50:44;;;;;;;0.00;0.00;;;;;;;;;;6272705;22;19999;-59
2021/12/14 03:53:10;;;;;;;0.00;0.00;;;;;;;;;;6272009;22;20027;-60
2021/12/14 03:55:38;;;;;;;0.00;0.00;;;;;;;;;;6271648;22;19992;-60
2021/12/14 03:58:08;;;;;;;0.00;0.00;;;;;;;;;;6272554;22;19995;-59
2021/12/14 04:00:35;;;;;;;0.00;0.00;;;;;;;;;;6272219;22;20000;-59
2021/12/14 04:03:04;;;;;;;0.00;0.00;;;;;;;;;;6271444;22;20002;-59
2021/12/14 04:05:41;;;;;;;0.00;0.00;;;;;;;;;;6272427;22;20492;-59
2021/12/14 04:08:10;;;;;;;0.00;0.00;;;;;;;;;;6272553;22;20390;-59
2021/12/14 04:10:48;;;;;;;0.00;0.00;;;;;;;;;;6272787;22;20000;-59
2021/12/14 04:13:18;;;;;;;0.00;0.00;;;;;;;;;;6271807;22;20291;-59
2021/12/14 04:15:43;;;;;;;0.00;0.00;;;;;;;;;;6272607;22;20078;-59
2021/12/14 04:18:09;;;;;;;0.00;0.00;;;;;;;;;;6245174;22;20031;-59
2021/12/14 04:20:39;;;;;;;0.00;0.00;;;;;;;;;;6272126;22;19995;-59
2021/12/14 04:23:19;;;;;;;0.00;0.00;;;;;;;;;;6272518;22;20074;-59
2021/12/14 04:25:52;;;;;;;0.00;0.00;;;;;;;;;;6272821;22;20489;-59
2021/12/14 04:28:20;;;;;;;0.00;0.00;;;;;;;;;;6270693;22;19999;-58
2021/12/14 04:30:46;;;;;;;0.00;0.00;;;;;;;;;;6272168;22;20436;-59
2021/12/14 04:33:16;;;;;;;0.00;0.00;;;;;;;;;;6271706;22;19995;-60
2021/12/14 04:35:44;;;;;;;1.02;1.02;;;;;;;;;;6272341;22;20126;-59
2021/12/14 04:38:18;;;;;;;0.00;0.00;;;;;;;;;;6272465;22;20003;-61
2021/12/14 04:54:20;;;;;;;0.00;0.00;;;;;;;;;;6271728;22;20010;-59
2021/12/14 04:56:46;;;;;;;0.30;0.30;;;;;;;;;;6271925;22;19995;-60
2021/12/14 04:59:16;;;;;;;2.95;1.65;;;;;;;;;;6271817;22;20299;-60
2021/12/14 05:01:43;;;;;;;0.00;0.00;;;;;;;;;;6271110;22;20431;-60
2021/12/14 05:04:10;;;;;;;0.00;0.00;;;;;;;;;;6271465;22;20003;-59
2021/12/14 05:06:53;;;;;;;3.45;3.30;;;;;;;;;;6271054;22;20024;-60
2021/12/14 05:09:23;;;;;;;0.00;0.00;;;;;;;;;;6271465;22;20018;-59
2021/12/14 05:11:50;;;;;;;0.20;0.20;;;;;;;;;;6272282;22;20345;-61
2021/12/14 05:14:15;;;;;;;0.00;0.00;;;;;;;;;;6271756;22;20000;-60
2021/12/14 05:16:41;;;;;;;0.00;0.00;;;;;;;;;;6272162;22;20000;-59
2021/12/14 05:19:07;;;;;;;0.00;0.00;;;;;;;;;;6271059;22;20007;-59
2021/12/14 05:21:38;;;;;;;0.00;0.00;;;;;;;;;;6271165;22;20004;-60
2021/12/14 05:24:05;;;;;;;0.00;0.00;;;;;;;;;;6271686;22;19999;-59
2021/12/14 05:26:33;;;;;;;0.00;0.00;;;;;;;;;;6243876;22;20023;-59
2021/12/14 05:28:59;;;;;;;0.00;0.00;;;;;;;;;;6271176;22;20000;-59
2021/12/14 05:31:24;;;;;;;0.00;0.00;;;;;;;;;;6271632;22;20025;-59
2021/12/14 05:33:50;;;;;;;0.00;0.00;;;;;;;;;;6271674;22;20014;-58
2021/12/14 05:36:17;;;;;;;0.00;0.00;;;;;;;;;;6272992;22;20000;-59
2021/12/14 05:44:08;;;;;;;0.00;0.00;;;;;;;;;;6274209;22;20006;-59
2021/12/14 05:46:35;;;;;;;0.00;0.00;;;;;;;;;;6273396;22;20000;-58
2021/12/14 05:49:03;;;;;;;0.00;0.00;;;;;;;;;;6273826;22;20003;-59
2021/12/14 05:51:29;;;;;;;0.00;0.00;;;;;;;;;;6273309;22;20006;-60
2021/12/14 05:53:55;;;;;;;0.00;0.00;;;;;;;;;;6272581;22;20073;-58
2021/12/14 05:56:22;;;;;;;0.00;0.00;;;;;;;;;;6272816;22;20006;-59
2021/12/14 05:58:48;;;;;;;0.00;0.00;;;;;;;;;;6273096;22;20203;-59
2021/12/14 06:01:14;;;;;;;0.00;0.00;;;;;;;;;;6273758;22;20147;-60
2021/12/14 06:03:42;;;;;;;0.00;0.00;;;;;;;;;;6272655;22;20007;-59
2021/12/14 06:06:16;;;;;;;0.00;0.00;;;;;;;;;;6272688;22;20406;-59
2021/12/14 06:08:41;;;;;;;0.00;0.00;;;;;;;;;;6272666;22;20000;-59
2021/12/14 06:11:06;;;;;;;0.00;0.00;;;;;;;;;;6273274;22;20440;-60
2021/12/14 06:13:40;;;;;;;0.00;0.00;;;;;;;;;;6272482;22;20020;-59
2021/12/14 06:16:06;;;;;;;0.00;0.00;;;;;;;;;;6273493;22;20008;-60
2021/12/14 06:18:31;;;;;;;0.00;0.00;;;;;;;;;;6273154;22;20004;-60
2021/12/14 06:20:56;;;;;;;0.00;0.00;;;;;;;;;;6273685;22;20003;-60
2021/12/14 06:23:23;;;;;;;0.00;0.00;;;;;;;;;;6273209;22;19996;-59
2021/12/14 06:25:48;;;;;;;3.50;3.40;;;;;;;;;;6272127;22;19992;-61
2021/12/14 06:28:20;;;;;;;0.00;0.00;;;;;;;;;;6272382;22;20003;-60
2021/12/14 06:30:46;;;;;;;0.65;0.65;;;;;;;;;;6273015;22;19992;-60
2021/12/14 06:33:11;;;;;;;0.00;0.00;;;;;;;;;;6273941;22;19995;-61
2021/12/14 06:35:41;;;;;;;0.00;0.00;;;;;;;;;;6272941;22;19991;-59
2021/12/14 06:40:45;;;;;;;0.00;0.00;;;;;;;;;;6271494;22;20024;-59
2021/12/14 06:43:15;;;;;;;0.00;0.00;;;;;;;;;;6245664;22;20000;-60
2021/12/14 06:45:43;;;;;;;0.10;0.10;;;;;;;;;;6272326;22;20410;-60
2021/12/14 06:48:10;;;;;;;0.00;0.00;;;;;;;;;;6272897;22;20086;-60
2021/12/14 06:50:38;;;;;;;0.00;0.00;;;;;;;;;;6272540;22;19996;-58
2021/12/14 06:53:07;;;;;;;0.00;0.00;;;;;;;;;;6272279;22;20030;-59
2021/12/14 06:55:33;;;;;;;0.00;0.00;;;;;;;;;;6271525;22;19996;-60
2021/12/14 06:58:09;;;;;;;0.10;0.10;;;;;;;;;;6273174;22;20004;-59
2021/12/14 07:00:36;;;;;;;13.55;4.65;;;;;;;;;;6272405;22;20494;-59
2021/12/14 07:03:02;;;;;;;0.00;0.00;;;;;;;;;;6272622;22;20045;-59
2021/12/14 07:05:28;;;;;;;0.00;0.00;;;;;;;;;;6272925;22;20421;-60
2021/12/14 07:07:53;;;;;;;0.30;0.30;;;;;;;;;;6245962;22;20078;-60
2021/12/14 07:10:19;;;;;;;0.73;0.73;;;;;;;;;;6246019;22;20441;-59
2021/12/14 07:12:44;;;;;;;0.00;0.00;;;;;;;;;;6272526;22;20012;-60
2021/12/14 07:15:12;;;;;;;1.25;1.25;;;;;;;;;;6272064;22;19996;-59
2021/12/14 07:17:44;;;;;;;0.00;0.00;;;;;;;;;;6272694;22;20068;-59
2021/12/14 07:20:18;;;;;;;0.00;0.00;;;;;;;;;;6273005;22;20004;-58
2021/12/14 07:22:45;;;;;;;0.00;0.00;;;;;;;;;;6272565;22;20006;-60
2021/12/14 07:25:15;;;;;;;0.00;0.00;;;;;;;;;;6272986;22;20413;-60
2021/12/14 07:27:44;;;;;;;0.00;0.00;;;;;;;;;;6272601;22;20773;-60
2021/12/14 07:30:12;;;;;;;0.20;0.20;;;;;;;;;;6272444;22;20003;-60
2021/12/14 07:32:39;;;;;;;0.00;0.00;;;;;;;;;;6272831;22;20003;-60
2021/12/14 07:35:17;;;;;;;0.00;0.00;;;;;;;;;;6272875;22;20083;-60
2021/12/14 07:37:43;;;;;;;0.00;0.00;;;;;;;;;;6271876;22;20031;-60
2021/12/14 07:40:08;;;;;;;0.00;0.00;;;;;;;;;;6272627;22;20012;-59
2021/12/14 07:42:34;;;;;;;0.00;0.00;;;;;;;;;;6271512;22;19996;-60
2021/12/14 07:44:59;;;;;;;0.00;0.00;;;;;;;;;;6272942;22;19996;-60
2021/12/14 07:47:24;;;;;;;0.00;0.00;;;;;;;;;;6271904;22;19999;-61
2021/12/14 07:49:54;;;;;;;0.00;0.00;;;;;;;;;;6272522;22;20008;-59
2021/12/14 07:52:19;;;;;;;;;;;;;;;;;;6272975;22;20081;-60
2021/12/14 07:54:45;;;;;;;0.00;0.00;;;;;;;;;;6271822;22;19903;-60
2021/12/14 07:57:15;;;;;;;0.00;0.00;;;;;;;;;;6272794;22;20233;-60
2021/12/14 07:59:41;;;;;;;0.00;0.00;;;;;;;;;;6271894;22;19995;-59
2021/12/14 08:02:23;;;;;;;0.00;0.00;;;;;;;;;;6272858;22;20009;-60
2021/12/14 08:04:51;;;;;;;0.00;0.00;;;;;;;;;;6271830;22;20014;-60
2021/12/14 08:07:25;;;;;;;0.00;0.00;;;;;;;;;;6272313;22;20023;-60
2021/12/14 08:09:52;;;;;;;0.00;0.00;;;;;;;;;;6271218;22;20078;-60
2021/12/14 08:12:26;;;;;;;0.00;0.00;;;;;;;;;;6272569;22;20004;-59
2021/12/14 08:15:04;;;;;;;0.00;0.00;;;;;;;;;;6272814;22;20080;-60
2021/12/14 08:17:31;;;;;;;0.00;0.00;;;;;;;;;;6272178;22;20077;-59
2021/12/14 08:19:56;;;;;;;0.00;0.00;;;;;;;;;;6272347;22;20006;-59
2021/12/14 08:22:30;;;;;;;0.68;0.68;;;;;;;;;;6272022;22;19996;-59
2021/12/14 08:24:56;;;;;;;0.00;0.00;;;;;;;;;;6272165;22;20085;-59
2021/12/14 08:27:22;;;;;;;0.00;0.00;;;;;;;;;;6272277;22;20000;-61
2021/12/14 08:29:50;;;;;;;0.00;0.00;;;;;;;;;;6272145;22;20004;-60
2021/12/14 08:32:20;;;;;;;0.00;0.00;;;;;;;;;;6272340;22;20003;-60
2021/12/14 08:34:46;;;;;;;0.00;0.00;;;;;;;;;;6271826;22;20003;-59
2021/12/14 08:37:14;;;;;;;0.00;0.00;;;;;;;;;;6272394;22;20390;-59
2021/12/14 08:39:45;;;;;;;0.00;0.00;;;;;;;;;;6271204;22;20046;-60
2021/12/14 08:42:29;;;;;;;0.00;0.00;;;;;;;;;;6272464;22;20000;-59
2021/12/14 08:44:56;;;;;;;0.00;0.00;;;;;;;;;;6272142;22;20033;-60
2021/12/14 08:47:30;;;;;;;0.00;0.00;;;;;;;;;;6245016;22;20003;-59
2021/12/14 08:49:58;;;;;;;0.00;0.00;;;;;;;;;;6271191;22;19996;-59
2021/12/14 08:52:24;;;;;;;0.00;0.00;;;;;;;;;;6272126;22;20008;-59
2021/12/14 08:54:49;;;;;;;0.00;0.00;;;;;;;;;;6271838;22;20488;-59
2021/12/14 08:57:18;;;;;;;0.00;0.00;;;;;;;;;;6272658;22;20052;-60
2021/12/14 08:59:45;;;;;;;0.65;0.65;;;;;;;;;;6271331;22;20000;-59
2021/12/14 09:02:14;;;;;;;0.00;0.00;;;;;;;;;;6272401;22;20065;-59
2021/12/14 09:04:45;;;;;;;0.00;0.00;;;;;;;;;;6271647;22;19999;-60
2021/12/14 09:07:18;;;;;;;0.00;0.00;;;;;;;;;;6272427;22;19992;-60
2021/12/14 09:09:44;;;;;;;0.10;0.10;;;;;;;;;;6271994;22;20090;-58
2021/12/14 09:12:11;;;;;;;0.00;0.00;;;;;;;;;;6274321;22;20042;-59
2021/12/14 09:14:37;;;;;;;0.00;0.00;;;;;;;;;;6273563;22;20017;-59
2021/12/14 09:17:04;;;;;;;0.32;0.32;;;;;;;;;;6274560;22;20000;-60
2021/12/14 09:19:33;;;;;;;2.95;2.85;;;;;;;;;;6272478;22;20099;-59
2021/12/14 09:22:00;;;;;;;0.00;0.00;;;;;;;;;;6273811;22;20364;-60
2021/12/14 09:24:27;;;;;;;0.00;0.00;;;;;;;;;;6274509;22;20007;-61
2021/12/14 09:26:58;;;;;;;0.85;0.85;;;;;;;;;;6273695;22;20022;-60
2021/12/14 09:29:25;;;;;;;3.42;2.45;;;;;;;;;;6273880;22;20004;-59
2021/12/14 09:31:51;;;;;;;0.38;0.38;;;;;;;;;;6273581;22;20053;-60
2021/12/14 09:34:19;;;;;;;0.10;0.10;;;;;;;;;;6274063;22;20436;-62
2021/12/14 09:36:45;;;;;;;2.05;0.60;;;;;;;;;;6273249;22;20072;-60
2021/12/14 09:39:16;;;;;;;1.80;1.73;;;;;;;;;;6273533;22;20456;-59
2021/12/14 09:41:42;;;;;;;0.25;0.25;;;;;;;;;;6272710;22;20008;-60
2021/12/14 09:44:09;;;;;;;0.52;0.52;;;;;;;;;;6274058;22;20440;-59
2021/12/14 09:46:35;;;;;;;0.00;0.00;;;;;;;;;;6272558;22;20007;-60
2021/12/14 09:49:02;;;;;;;0.22;0.17;;;;;;;;;;6272833;22;20361;-61
2021/12/14 09:51:29;;;;;;;6.10;5.72;;;;;;;;;;6273661;22;20057;-60
2021/12/14 09:53:55;;;;;;;0.00;0.00;;;;;;;;;;6271949;22;20049;-60
2021/12/14 09:56:22;;;;;;;16.23;15.13;;;;;;;;;;6272464;22;19996;-61
2021/12/14 09:58:49;;;;;;;0.32;0.30;;;;;;;;;;6272736;22;20458;-61
2021/12/14 10:01:18;;;;;;;1.15;1.15;;;;;;;;;;6272975;22;20003;-60
2021/12/14 10:03:45;;;;;;;0.00;0.00;;;;;;;;;;6272426;22;20084;-60
2021/12/14 10:06:13;;;;;;;0.00;0.00;;;;;;;;;;6273492;22;19996;-60
2021/12/14 10:08:42;;;;;;;0.00;0.00;;;;;;;;;;6272685;22;20010;-61
2021/12/14 10:11:11;;;;;;;0.43;0.43;;;;;;;;;;6273540;22;20069;-60
2021/12/14 10:13:40;;;;;;;0.20;0.20;;;;;;;;;;6272773;22;20000;-60
2021/12/14 10:16:06;;;;;;;0.00;0.00;;;;;;;;;;6272863;22;20007;-61
2021/12/14 10:18:36;;;;;;;0.00;0.00;;;;;;;;;;6273058;22;20004;-61
2021/12/14 10:21:09;;;;;;;1.85;1.77;;;;;;;;;;6272748;22;20045;-60
2021/12/14 10:23:37;;;;;;;0.00;0.00;;;;;;;;;;6245383;22;20078;-61
2021/12/14 10:26:03;;;;;;;0.00;0.00;;;;;;;;;;6273465;22;19999;-61
2021/12/14 10:28:29;;;;;;;0.00;0.00;;;;;;;;;;6272959;22;20075;-60
2021/12/14 10:31:03;;;;;;;0.00;0.00;;;;;;;;;;6271509;22;20031;-60
2021/12/14 10:33:31;;;;;;;1.70;1.63;;;;;;;;;;6272627;22;20027;-60
2021/12/14 10:36:01;;;;;;;0.77;0.77;;;;;;;;;;6245451;22;20000;-61
2021/12/14 10:38:36;;;;;;;1.20;0.93;;;;;;;;;;6273671;22;19996;-60
2021/12/14 10:43:54;;;;;;;0.00;0.00;;;;;;;;;;6272768;22;20503;-60
2021/12/14 10:46:22;;;;;;;2.95;2.85;;;;;;;;;;6272782;22;20019;-60
2021/12/14 10:48:48;;;;;;;0.70;0.70;;;;;;;;;;6272654;22;20086;-60
2021/12/14 10:51:15;;;;;;;0.00;0.00;;;;;;;;;;6273563;22;20003;-60
2021/12/14 10:53:42;;;;;;;1.45;1.45;;;;;;;;;;6272983;22;19995;-60
2021/12/14 10:56:12;;;;;;;0.00;0.00;;;;;;;;;;6273190;22;20338;-60
2021/12/14 10:58:38;;;;;;;0.00;0.00;;;;;;;;;;6272330;22;20000;-59
2021/12/14 11:01:06;;;;;;;0.00;0.00;;;;;;;;;;6273121;22;20007;-61
2021/12/14 11:03:35;;;;;;;0.00;0.00;;;;;;;;;;6245530;22;20460;-60
2021/12/14 11:06:01;;;;;;;0.00;0.00;;;;;;;;;;6273244;22;19999;-60
2021/12/14 11:11:02;;;;;;;0.00;0.00;;;;;;;;;;6283469;22;20310;-59
2021/12/14 11:13:36;;;;;;;2.63;2.55;;;;;;;;;;6272515;22;19995;-60
2021/12/14 11:16:01;;;;;;;0.00;0.00;;;;;;;;;;6272919;22;20340;-59
2021/12/14 11:18:27;;;;;;;1.55;1.42;;;;;;;;;;6272899;22;20007;-59
2021/12/14 11:21:04;;;;;;;0.00;0.00;;;;;;;;;;6272231;22;20006;-59
2021/12/14 11:23:40;;;;;;;0.73;0.15;;;;;;;;;;6273239;22;20325;-60
2021/12/14 11:26:17;;;;;;;0.00;0.00;;;;;;;;;;6273192;22;20079;-59
2021/12/14 11:28:47;;;;;;;0.00;0.00;;;;;;;;;;6272089;22;20002;-60
2021/12/14 11:31:31;;;;;;;0.75;0.75;;;;;;;;;;6272722;22;19999;-60
2021/12/14 11:34:01;;;;;;;0.00;0.00;;;;;;;;;;6271511;22;20014;-60
2021/12/14 11:36:31;;;;;;;0.00;0.00;;;;;;;;;;6273110;22;20350;-60
2021/12/14 11:38:59;;;;;;;0.00;0.00;;;;;;;;;;6271833;22;20000;-60
2021/12/14 11:41:43;;;;;;;1.67;1.58;;;;;;;;;;6272378;22;20064;-60
2021/12/14 11:44:08;;;;;;;0.20;0.20;;;;;;;;;;6245456;22;20078;-59
2021/12/14 11:46:44;;;;;;;0.00;0.00;;;;;;;;;;6273174;22;20019;-61
2021/12/14 11:49:09;;;;;;;4.38;2.28;;;;;;;;;;6268913;22;20010;-61
2021/12/14 11:51:35;;;;;;;0.00;0.00;;;;;;;;;;6244516;22;20011;-61
2021/12/14 11:54:00;;;;;;;0.00;0.00;;;;;;;;;;6271763;22;20431;-63
2021/12/14 11:56:27;;;;;;;0.75;0.75;;;;;;;;;;6269812;22;20006;-60
2021/12/14 11:58:57;;;;;;;0.00;0.00;;;;;;;;;;6271235;22;20003;-61
2021/12/14 12:01:32;;;;;;;0.00;0.00;;;;;;;;;;6245032;22;19999;-59
2021/12/14 12:04:03;;;;;;;0.00;0.00;;;;;;;;;;6269809;22;20026;-60
2021/12/14 12:09:33;;;;;;;0.05;0.05;;;;;;;;;;6278435;22;20102;-60
2021/12/14 12:12:01;;;;;;;2.75;2.40;;;;;;;;;;6270630;22;20492;-60
2021/12/14 12:14:29;;;;;;;0.65;0.65;;;;;;;;;;6272362;22;20010;-60
2021/12/14 12:16:56;;;;;;;0.00;0.00;;;;;;;;;;6271784;22;20049;-60
2021/12/14 12:19:26;;;;;;;0.00;0.00;;;;;;;;;;6272278;22;20014;-59
2021/12/14 12:21:52;;;;;;;0.20;0.20;;;;;;;;;;6244130;22;20084;-59
2021/12/14 12:24:31;;;;;;;0.00;0.00;;;;;;;;;;6272245;22;20743;-60
2021/12/14 12:27:15;;;;;;;0.00;0.00;;;;;;;;;;6272698;22;20026;-59
2021/12/14 12:29:40;;;;;;;0.13;0.13;;;;;;;;;;6271141;22;20031;-59
2021/12/14 12:32:16;;;;;;;0.10;0.10;;;;;;;;;;6243488;22;20000;-59
2021/12/14 12:34:43;;;;;;;0.35;0.35;;;;;;;;;;6270804;22;20074;-60
2021/12/14 12:37:11;;;;;;;3.90;2.03;;;;;;;;;;6271804;22;20057;-62
2021/12/14 12:39:37;;;;;;;0.75;0.75;;;;;;;;;;6271454;22;20018;-59
2021/12/14 12:42:04;;;;;;;0.00;0.00;;;;;;;;;;6271300;22;20037;-60
2021/12/14 12:44:31;;;;;;;0.88;0.88;;;;;;;;;;6271188;22;20031;-63
2021/12/14 12:47:11;;;;;;;0.00;0.00;;;;;;;;;;6244907;22;19995;-64
2021/12/14 12:49:39;;;;;;;0.00;0.00;;;;;;;;;;6271768;22;19995;-64
2021/12/14 12:52:18;;;;;;;0.00;0.00;;;;;;;;;;6271726;22;19999;-64
2021/12/14 12:54:59;;;;;;;0.00;0.00;;;;;;;;;;6270339;22;20003;-64
2021/12/14 12:57:33;;;;;;;0.00;0.00;;;;;;;;;;6271535;22;20000;-65
2021/12/14 12:59:59;;;;;;;0.00;0.00;;;;;;;;;;6270193;22;20357;-64
2021/12/14 13:02:24;;;;;;;0.00;0.00;;;;;;;;;;6272393;22;19995;-64
2021/12/14 13:04:51;;;;;;;0.00;0.00;;;;;;;;;;6271859;22;19996;-65
2021/12/14 13:07:17;;;;;;;0.75;0.75;;;;;;;;;;6271581;22;20025;-64
2021/12/14 13:09:59;;;;;;;0.10;0.10;;;;;;;;;;6269783;22;20019;-64
2021/12/14 13:12:38;;;;;;;0.00;0.00;;;;;;;;;;6272041;22;20437;-65
2021/12/14 13:15:03;;;;;;;0.00;0.00;;;;;;;;;;6270988;22;20006;-65
2021/12/14 13:17:29;;;;;;;0.00;0.00;;;;;;;;;;6272481;22;20573;-64
2021/12/14 13:20:00;;;;;;;0.00;0.00;;;;;;;;;;6271054;22;20027;-64
2021/12/14 13:22:26;;;;;;;1.17;1.17;;;;;;;;;;6272241;22;20386;-65
2021/12/14 13:24:52;;;;;;;0.00;0.00;;;;;;;;;;6270669;22;20010;-65
2021/12/14 13:27:20;;;;;;;0.00;0.00;;;;;;;;;;6271968;22;20019;-63
2021/12/14 13:29:47;;;;;;;0.52;0.52;;;;;;;;;;6271151;22;20019;-64
2021/12/14 13:32:21;;;;;;;0.00;0.00;;;;;;;;;;6271687;22;19995;-63
2021/12/14 13:34:53;;;;;;;0.00;0.00;;;;;;;;;;6270145;22;20003;-64
2021/12/14 13:37:28;;;;;;;0.15;0.15;;;;;;;;;;6270410;22;20076;-63
2021/12/14 13:39:57;;;;;;;0.15;0.15;;;;;;;;;;6269374;22;20061;-64
2021/12/14 13:42:31;;;;;;;0.15;0.15;;;;;;;;;;6271199;22;20057;-63
2021/12/14 13:44:57;;;;;;;0.75;0.75;;;;;;;;;;6270593;22;20317;-64
2021/12/14 13:47:25;;;;;;;0.00;0.00;;;;;;;;;;6270130;22;20045;-64
2021/12/14 13:49:51;;;;;;;0.75;0.65;;;;;;;;;;6270228;22;20002;-63
2021/12/14 13:52:18;;;;;;;0.85;0.85;;;;;;;;;;6270815;22;20034;-64
2021/12/14 13:55:04;;;;;;;0.00;0.00;;;;;;;;;;6269428;22;20000;-66
2021/12/14 13:57:29;;;;;;;0.00;0.00;;;;;;;;;;6272601;22;20334;-64
2021/12/14 13:59:55;;;;;;;0.00;0.00;;;;;;;;;;6272204;22;19996;-63
2021/12/14 14:02:20;;;;;;;0.00;0.00;;;;;;;;;;6272657;22;19999;-63
2021/12/14 14:04:46;;;;;;;0.00;0.00;;;;;;;;;;6272365;22;19999;-65
2021/12/14 14:07:11;;;;;;;0.00;0.00;;;;;;;;;;6271081;22;20003;-64
2021/12/14 14:09:40;;;;;;;0.00;0.00;;;;;;;;;;6272641;22;20057;-65
2021/12/14 14:12:14;;;;;;;0.00;0.00;;;;;;;;;;6270217;22;20019;-64
2021/12/14 14:14:40;;;;;;;0.32;0.32;;;;;;;;;;6272442;22;20696;-64
2021/12/14 14:17:07;;;;;;;0.00;0.00;;;;;;;;;;6271415;22;19999;-65
2021/12/14 14:19:37;;;;;;;0.00;0.00;;;;;;;;;;6271590;22;19995;-65
2021/12/14 14:22:07;;;;;;;0.00;0.00;;;;;;;;;;6271702;22;20003;-65
2021/12/14 14:24:34;;;;;;;0.10;0.10;;;;;;;;;;6272818;22;20018;-64
2021/12/14 14:27:00;;;;;;;0.00;0.00;;;;;;;;;;6271849;22;20475;-66
2021/12/14 14:29:38;;;;;;;0.00;0.00;;;;;;;;;;6272396;22;20057;-64
2021/12/14 14:32:22;;;;;;;0.85;0.85;;;;;;;;;;6271124;22;20034;-65
2021/12/14 14:34:54;;;;;;;0.10;0.10;;;;;;;;;;6271571;22;20329;-65
2021/12/14 14:37:25;;;;;;;0.00;0.00;;;;;;;;;;6272356;22;19999;-65
2021/12/14 14:39:52;;;;;;;0.00;0.00;;;;;;;;;;6271507;22;20039;-65
2021/12/14 14:42:17;;;;;;;0.00;0.00;;;;;;;;;;6271288;22;20452;-66
2021/12/14 14:44:44;;;;;;;0.00;0.00;;;;;;;;;;6272617;22;20007;-65
2021/12/14 14:47:12;;;;;;;0.00;0.00;;;;;;;;;;6271049;22;20102;-64
2021/12/14 14:49:37;;;;;;;0.00;0.00;;;;;;;;;;6245011;22;19995;-65
2021/12/14 14:52:19;;;;;;;0.00;0.00;;;;;;;;;;6272170;22;20046;-64
2021/12/14 14:54:52;;;;;;;0.00;0.00;;;;;;;;;;6271941;22;20087;-64
2021/12/14 14:57:18;;;;;;;0.00;0.00;;;;;;;;;;6272032;22;20393;-66
2021/12/14 14:59:55;;;;;;;0.00;0.00;;;;;;;;;;6271408;22;20006;-66
2021/12/14 15:02:32;;;;;;;0.00;0.00;;;;;;;;;;6271773;22;19996;-65
2021/12/14 15:05:02;;;;;;;0.00;0.00;;;;;;;;;;6270627;22;20445;-65
2021/12/14 15:07:46;;;;;;;0.00;0.00;;;;;;;;;;6272488;22;20436;-64
2021/12/14 15:10:13;;;;;;;0.00;0.00;;;;;;;;;;6273138;22;20409;-66
2021/12/14 15:12:39;;;;;;;0.85;0.85;;;;;;;;;;6272993;22;20515;-65
2021/12/14 15:15:14;;;;;;;0.00;0.00;;;;;;;;;;6272765;22;20004;-64
2021/12/14 15:17:46;;;;;;;0.93;0.93;;;;;;;;;;6272875;22;20421;-65
2021/12/14 15:20:28;;;;;;;1.70;1.63;;;;;;;;;;6272063;22;20011;-65
2021/12/14 15:23:14;;;;;;;0.00;0.00;;;;;;;;;;6272382;22;20431;-65
2021/12/14 15:25:39;;;;;;;0.88;0.88;;;;;;;;;;6245243;22;20015;-64